sensor_id;sensor_type;location;lat;lon;timestamp;P1;durP1;ratioP1;P2;durP2;ratioP2
47589;SDS011;33316;52.298;9.056;2022-07-23T00:02:06;4.53;;;2.30;;
47589;SDS011;33316;52.298;9.056;2022-07-23T00:04:32;3.35;;;2.40;;
47589;SDS011;33316;52.298;9.056;2022-07-23T00:06:58;3.22;;;2.25;;
47589;SDS011;33316;52.298;9.056;2022-07-23T00:09:24;2.58;;;2.25;;
47589;SDS011;33316;52.298;9.056;2022-07-23T00:11:49;4.20;;;2.40;;
47589;SDS011;33316;52.298;9.056;2022-07-23T00:14:15;3.00;;;2.50;;
47589;SDS011;33316;52.298;9.056;2022-07-23T00:16:40;3.25;;;2.25;;
47589;SDS011;33316;52.298;9.056;2022-07-23T00:19:06;4.50;;;2.88;;
47589;SDS011;33316;52.298;9.056;2022-07-23T00:21:31;3.80;;;2.35;;
47589;SDS011;33316;52.298;9.056;2022-07-23T00:23:57;4.03;;;2.60;;
47589;SDS011;33316;52.298;9.056;2022-07-23T00:26:23;4.00;;;2.33;;
47589;SDS011;33316;52.298;9.056;2022-07-23T00:28:48;3.75;;;2.50;;
47589;SDS011;33316;52.298;9.056;2022-07-23T00:31:14;3.13;;;2.20;;
47589;SDS011;33316;52.298;9.056;2022-07-23T00:33:40;3.88;;;2.50;;
47589;SDS011;33316;52.298;9.056;2022-07-23T00:36:06;3.45;;;2.50;;
47589;SDS011;33316;52.298;9.056;2022-07-23T00:38:31;3.45;;;2.40;;
47589;SDS011;33316;52.298;9.056;2022-07-23T00:40:57;3.58;;;2.05;;
47589;SDS011;33316;52.298;9.056;2022-07-23T00:43:23;4.93;;;2.17;;
47589;SDS011;33316;52.298;9.056;2022-07-23T00:45:50;3.10;;;2.40;;
47589;SDS011;33316;52.298;9.056;2022-07-23T00:48:16;4.05;;;2.83;;
47589;SDS011;33316;52.298;9.056;2022-07-23T00:50:42;4.68;;;2.80;;
47589;SDS011;33316;52.298;9.056;2022-07-23T00:53:08;2.92;;;2.28;;
47589;SDS011;33316;52.298;9.056;2022-07-23T00:55:34;3.65;;;2.25;;
47589;SDS011;33316;52.298;9.056;2022-07-23T00:58:01;4.03;;;2.47;;
47589;SDS011;33316;52.298;9.056;2022-07-23T01:00:27;2.95;;;2.22;;
47589;SDS011;33316;52.298;9.056;2022-07-23T01:02:53;2.88;;;2.00;;
47589;SDS011;33316;52.298;9.056;2022-07-23T01:05:18;2.67;;;2.00;;
47589;SDS011;33316;52.298;9.056;2022-07-23T01:07:47;3.60;;;2.03;;
47589;SDS011;33316;52.298;9.056;2022-07-23T01:10:14;3.13;;;2.38;;
47589;SDS011;33316;52.298;9.056;2022-07-23T01:12:59;3.15;;;2.30;;
47589;SDS011;33316;52.298;9.056;2022-07-23T01:15:29;3.15;;;2.10;;
47589;SDS011;33316;52.298;9.056;2022-07-23T01:17:55;3.65;;;2.50;;
47589;SDS011;33316;52.298;9.056;2022-07-23T01:20:21;2.78;;;2.10;;
47589;SDS011;33316;52.298;9.056;2022-07-23T01:22:47;4.03;;;2.10;;
47589;SDS011;33316;52.298;9.056;2022-07-23T01:25:13;4.00;;;2.40;;
47589;SDS011;33316;52.298;9.056;2022-07-23T01:27:39;3.75;;;2.55;;
47589;SDS011;33316;52.298;9.056;2022-07-23T01:30:05;2.70;;;2.10;;
47589;SDS011;33316;52.298;9.056;2022-07-23T01:32:31;3.05;;;2.13;;
47589;SDS011;33316;52.298;9.056;2022-07-23T01:34:56;3.53;;;2.17;;
47589;SDS011;33316;52.298;9.056;2022-07-23T01:37:22;2.92;;;2.10;;
47589;SDS011;33316;52.298;9.056;2022-07-23T01:39:48;3.38;;;2.17;;
47589;SDS011;33316;52.298;9.056;2022-07-23T01:42:13;4.15;;;2.42;;
47589;SDS011;33316;52.298;9.056;2022-07-23T01:44:39;2.80;;;2.42;;
47589;SDS011;33316;52.298;9.056;2022-07-23T01:47:05;3.50;;;2.25;;
47589;SDS011;33316;52.298;9.056;2022-07-23T01:49:31;3.58;;;2.10;;
47589;SDS011;33316;52.298;9.056;2022-07-23T01:51:57;3.40;;;1.90;;
47589;SDS011;33316;52.298;9.056;2022-07-23T01:54:25;2.90;;;1.77;;
47589;SDS011;33316;52.298;9.056;2022-07-23T01:56:55;2.50;;;1.98;;
47589;SDS011;33316;52.298;9.056;2022-07-23T01:59:21;3.03;;;1.70;;
47589;SDS011;33316;52.298;9.056;2022-07-23T02:01:47;2.10;;;1.83;;
47589;SDS011;33316;52.298;9.056;2022-07-23T02:04:15;2.80;;;1.98;;
47589;SDS011;33316;52.298;9.056;2022-07-23T02:06:42;3.42;;;2.00;;
47589;SDS011;33316;52.298;9.056;2022-07-23T02:09:07;2.85;;;2.08;;
47589;SDS011;33316;52.298;9.056;2022-07-23T02:11:33;3.92;;;2.20;;
47589;SDS011;33316;52.298;9.056;2022-07-23T02:13:58;3.28;;;2.00;;
47589;SDS011;33316;52.298;9.056;2022-07-23T02:16:24;3.35;;;2.53;;
47589;SDS011;33316;52.298;9.056;2022-07-23T02:18:49;3.40;;;2.33;;
47589;SDS011;33316;52.298;9.056;2022-07-23T02:21:15;3.70;;;2.15;;
47589;SDS011;33316;52.298;9.056;2022-07-23T02:23:40;3.30;;;2.05;;
47589;SDS011;33316;52.298;9.056;2022-07-23T02:26:06;2.33;;;1.98;;
47589;SDS011;33316;52.298;9.056;2022-07-23T02:28:31;2.40;;;2.03;;
47589;SDS011;33316;52.298;9.056;2022-07-23T02:30:57;3.03;;;2.13;;
47589;SDS011;33316;52.298;9.056;2022-07-23T02:33:23;2.85;;;2.15;;
47589;SDS011;33316;52.298;9.056;2022-07-23T02:35:48;3.50;;;2.40;;
47589;SDS011;33316;52.298;9.056;2022-07-23T02:38:14;2.90;;;2.00;;
47589;SDS011;33316;52.298;9.056;2022-07-23T02:40:39;2.20;;;1.80;;
47589;SDS011;33316;52.298;9.056;2022-07-23T02:43:05;2.60;;;2.00;;
47589;SDS011;33316;52.298;9.056;2022-07-23T02:45:31;3.50;;;1.65;;
47589;SDS011;33316;52.298;9.056;2022-07-23T02:47:56;2.92;;;1.95;;
47589;SDS011;33316;52.298;9.056;2022-07-23T02:50:22;3.45;;;2.05;;
47589;SDS011;33316;52.298;9.056;2022-07-23T02:52:48;4.55;;;2.42;;
47589;SDS011;33316;52.298;9.056;2022-07-23T02:55:13;3.63;;;2.20;;
47589;SDS011;33316;52.298;9.056;2022-07-23T02:57:39;3.17;;;2.17;;
47589;SDS011;33316;52.298;9.056;2022-07-23T03:00:05;2.92;;;1.90;;
47589;SDS011;33316;52.298;9.056;2022-07-23T03:02:32;3.92;;;2.30;;
47589;SDS011;33316;52.298;9.056;2022-07-23T03:04:57;2.40;;;1.90;;
47589;SDS011;33316;52.298;9.056;2022-07-23T03:07:23;3.15;;;1.98;;
47589;SDS011;33316;52.298;9.056;2022-07-23T03:09:49;3.50;;;2.40;;
47589;SDS011;33316;52.298;9.056;2022-07-23T03:12:14;2.97;;;2.17;;
47589;SDS011;33316;52.298;9.056;2022-07-23T03:14:40;2.75;;;2.22;;
47589;SDS011;33316;52.298;9.056;2022-07-23T03:17:06;3.35;;;2.25;;
47589;SDS011;33316;52.298;9.056;2022-07-23T03:19:32;2.33;;;1.98;;
47589;SDS011;33316;52.298;9.056;2022-07-23T03:21:57;2.40;;;2.00;;
47589;SDS011;33316;52.298;9.056;2022-07-23T03:24:23;4.25;;;2.17;;
47589;SDS011;33316;52.298;9.056;2022-07-23T03:27:08;3.90;;;2.50;;
47589;SDS011;33316;52.298;9.056;2022-07-23T03:29:34;3.75;;;2.30;;
47589;SDS011;33316;52.298;9.056;2022-07-23T03:32:00;2.67;;;1.98;;
47589;SDS011;33316;52.298;9.056;2022-07-23T03:34:26;3.08;;;1.92;;
47589;SDS011;33316;52.298;9.056;2022-07-23T03:36:52;2.70;;;2.10;;
47589;SDS011;33316;52.298;9.056;2022-07-23T03:39:17;3.00;;;2.20;;
47589;SDS011;33316;52.298;9.056;2022-07-23T03:41:43;5.70;;;2.30;;
47589;SDS011;33316;52.298;9.056;2022-07-23T03:44:08;4.07;;;2.33;;
47589;SDS011;33316;52.298;9.056;2022-07-23T03:46:34;4.88;;;2.17;;
47589;SDS011;33316;52.298;9.056;2022-07-23T03:48:59;2.90;;;2.10;;
47589;SDS011;33316;52.298;9.056;2022-07-23T03:51:25;3.05;;;2.10;;
47589;SDS011;33316;52.298;9.056;2022-07-23T03:53:50;2.80;;;2.08;;
47589;SDS011;33316;52.298;9.056;2022-07-23T03:56:16;2.70;;;2.05;;
47589;SDS011;33316;52.298;9.056;2022-07-23T03:58:41;2.38;;;2.10;;
47589;SDS011;33316;52.298;9.056;2022-07-23T04:01:07;4.00;;;2.00;;
47589;SDS011;33316;52.298;9.056;2022-07-23T04:03:32;2.53;;;2.17;;
47589;SDS011;33316;52.298;9.056;2022-07-23T04:05:58;3.17;;;2.15;;
47589;SDS011;33316;52.298;9.056;2022-07-23T04:08:23;3.70;;;2.10;;
47589;SDS011;33316;52.298;9.056;2022-07-23T04:10:50;3.28;;;2.15;;
47589;SDS011;33316;52.298;9.056;2022-07-23T04:13:15;2.10;;;1.67;;
47589;SDS011;33316;52.298;9.056;2022-07-23T04:15:41;3.40;;;2.20;;
47589;SDS011;33316;52.298;9.056;2022-07-23T04:18:07;2.53;;;1.90;;
47589;SDS011;33316;52.298;9.056;2022-07-23T04:20:33;3.50;;;1.80;;
47589;SDS011;33316;52.298;9.056;2022-07-23T04:22:58;2.35;;;2.10;;
47589;SDS011;33316;52.298;9.056;2022-07-23T04:25:24;5.05;;;2.10;;
47589;SDS011;33316;52.298;9.056;2022-07-23T04:27:49;3.80;;;2.00;;
47589;SDS011;33316;52.298;9.056;2022-07-23T04:30:15;3.63;;;2.13;;
47589;SDS011;33316;52.298;9.056;2022-07-23T04:32:40;3.03;;;2.30;;
47589;SDS011;33316;52.298;9.056;2022-07-23T04:35:06;5.28;;;2.38;;
47589;SDS011;33316;52.298;9.056;2022-07-23T04:37:32;3.92;;;2.10;;
47589;SDS011;33316;52.298;9.056;2022-07-23T04:39:58;3.47;;;2.40;;
47589;SDS011;33316;52.298;9.056;2022-07-23T04:42:23;2.70;;;2.45;;
47589;SDS011;33316;52.298;9.056;2022-07-23T04:44:49;2.63;;;2.17;;
47589;SDS011;33316;52.298;9.056;2022-07-23T04:47:14;4.07;;;2.13;;
47589;SDS011;33316;52.298;9.056;2022-07-23T04:49:40;2.10;;;1.90;;
47589;SDS011;33316;52.298;9.056;2022-07-23T04:52:05;2.58;;;2.00;;
47589;SDS011;33316;52.298;9.056;2022-07-23T04:54:31;3.88;;;2.28;;
47589;SDS011;33316;52.298;9.056;2022-07-23T04:56:57;3.22;;;2.20;;
47589;SDS011;33316;52.298;9.056;2022-07-23T04:59:22;3.00;;;2.38;;
47589;SDS011;33316;52.298;9.056;2022-07-23T05:01:48;2.65;;;2.05;;
47589;SDS011;33316;52.298;9.056;2022-07-23T05:04:13;5.65;;;2.70;;
47589;SDS011;33316;52.298;9.056;2022-07-23T05:06:39;3.28;;;2.15;;
47589;SDS011;33316;52.298;9.056;2022-07-23T05:09:04;3.05;;;2.25;;
47589;SDS011;33316;52.298;9.056;2022-07-23T05:11:30;3.42;;;2.38;;
47589;SDS011;33316;52.298;9.056;2022-07-23T05:13:55;2.97;;;2.00;;
47589;SDS011;33316;52.298;9.056;2022-07-23T05:16:21;3.35;;;2.50;;
47589;SDS011;33316;52.298;9.056;2022-07-23T05:18:46;2.97;;;2.42;;
47589;SDS011;33316;52.298;9.056;2022-07-23T05:21:12;3.35;;;2.10;;
47589;SDS011;33316;52.298;9.056;2022-07-23T05:23:37;3.38;;;2.40;;
47589;SDS011;33316;52.298;9.056;2022-07-23T05:26:04;3.55;;;2.45;;
47589;SDS011;33316;52.298;9.056;2022-07-23T05:28:30;3.53;;;2.55;;
47589;SDS011;33316;52.298;9.056;2022-07-23T05:30:55;4.95;;;2.38;;
47589;SDS011;33316;52.298;9.056;2022-07-23T05:33:21;4.20;;;2.25;;
47589;SDS011;33316;52.298;9.056;2022-07-23T05:35:46;4.70;;;2.60;;
47589;SDS011;33316;52.298;9.056;2022-07-23T05:38:12;2.78;;;2.28;;
47589;SDS011;33316;52.298;9.056;2022-07-23T05:40:38;3.20;;;2.40;;
47589;SDS011;33316;52.298;9.056;2022-07-23T05:43:03;3.05;;;2.22;;
47589;SDS011;33316;52.298;9.056;2022-07-23T05:45:29;3.72;;;2.33;;
47589;SDS011;33316;52.298;9.056;2022-07-23T05:47:55;3.58;;;2.35;;
47589;SDS011;33316;52.298;9.056;2022-07-23T05:50:20;2.55;;;2.00;;
47589;SDS011;33316;52.298;9.056;2022-07-23T05:52:46;5.07;;;2.28;;
47589;SDS011;33316;52.298;9.056;2022-07-23T05:55:12;3.95;;;2.15;;
47589;SDS011;33316;52.298;9.056;2022-07-23T05:57:38;2.42;;;1.98;;
47589;SDS011;33316;52.298;9.056;2022-07-23T06:00:04;3.42;;;2.30;;
47589;SDS011;33316;52.298;9.056;2022-07-23T06:02:31;3.22;;;2.40;;
47589;SDS011;33316;52.298;9.056;2022-07-23T06:04:56;3.10;;;1.90;;
47589;SDS011;33316;52.298;9.056;2022-07-23T06:07:22;3.40;;;2.40;;
47589;SDS011;33316;52.298;9.056;2022-07-23T06:09:47;2.33;;;2.10;;
47589;SDS011;33316;52.298;9.056;2022-07-23T06:12:14;2.88;;;2.40;;
47589;SDS011;33316;52.298;9.056;2022-07-23T06:14:40;2.92;;;1.98;;
47589;SDS011;33316;52.298;9.056;2022-07-23T06:17:06;4.15;;;2.40;;
47589;SDS011;33316;52.298;9.056;2022-07-23T06:19:31;4.05;;;2.13;;
47589;SDS011;33316;52.298;9.056;2022-07-23T06:21:57;2.22;;;1.92;;
47589;SDS011;33316;52.298;9.056;2022-07-23T06:24:23;4.07;;;2.55;;
47589;SDS011;33316;52.298;9.056;2022-07-23T06:26:48;3.88;;;2.50;;
47589;SDS011;33316;52.298;9.056;2022-07-23T06:29:14;3.05;;;1.92;;
47589;SDS011;33316;52.298;9.056;2022-07-23T06:31:39;4.30;;;2.35;;
47589;SDS011;33316;52.298;9.056;2022-07-23T06:34:05;3.65;;;2.15;;
47589;SDS011;33316;52.298;9.056;2022-07-23T06:36:30;2.50;;;2.03;;
47589;SDS011;33316;52.298;9.056;2022-07-23T06:38:56;3.13;;;2.22;;
47589;SDS011;33316;52.298;9.056;2022-07-23T06:41:21;3.47;;;2.10;;
47589;SDS011;33316;52.298;9.056;2022-07-23T06:43:50;3.30;;;2.35;;
47589;SDS011;33316;52.298;9.056;2022-07-23T06:46:15;4.63;;;2.10;;
47589;SDS011;33316;52.298;9.056;2022-07-23T06:48:41;3.97;;;2.60;;
47589;SDS011;33316;52.298;9.056;2022-07-23T06:51:07;4.95;;;2.25;;
47589;SDS011;33316;52.298;9.056;2022-07-23T06:53:32;4.93;;;3.00;;
47589;SDS011;33316;52.298;9.056;2022-07-23T06:55:58;3.40;;;2.38;;
47589;SDS011;33316;52.298;9.056;2022-07-23T06:58:24;7.32;;;3.35;;
47589;SDS011;33316;52.298;9.056;2022-07-23T07:00:49;4.38;;;2.60;;
47589;SDS011;33316;52.298;9.056;2022-07-23T07:03:16;2.38;;;2.00;;
47589;SDS011;33316;52.298;9.056;2022-07-23T07:05:42;5.35;;;2.20;;
47589;SDS011;33316;52.298;9.056;2022-07-23T07:08:07;3.15;;;1.98;;
47589;SDS011;33316;52.298;9.056;2022-07-23T07:10:33;3.67;;;1.92;;
47589;SDS011;33316;52.298;9.056;2022-07-23T07:12:58;2.45;;;1.73;;
47589;SDS011;33316;52.298;9.056;2022-07-23T07:15:24;3.22;;;1.92;;
47589;SDS011;33316;52.298;9.056;2022-07-23T07:17:50;4.03;;;1.65;;
47589;SDS011;33316;52.298;9.056;2022-07-23T07:20:15;4.63;;;1.60;;
47589;SDS011;33316;52.298;9.056;2022-07-23T07:22:41;3.47;;;1.27;;
47589;SDS011;33316;52.298;9.056;2022-07-23T07:25:07;5.90;;;1.55;;
47589;SDS011;33316;52.298;9.056;2022-07-23T07:27:33;2.20;;;1.33;;
47589;SDS011;33316;52.298;9.056;2022-07-23T07:29:58;3.95;;;1.17;;
47589;SDS011;33316;52.298;9.056;2022-07-23T07:32:24;1.77;;;1.00;;
47589;SDS011;33316;52.298;9.056;2022-07-23T07:34:50;2.53;;;1.10;;
47589;SDS011;33316;52.298;9.056;2022-07-23T07:37:15;2.60;;;1.20;;
47589;SDS011;33316;52.298;9.056;2022-07-23T07:39:41;2.42;;;0.98;;
47589;SDS011;33316;52.298;9.056;2022-07-23T07:42:06;2.58;;;1.08;;
47589;SDS011;33316;52.298;9.056;2022-07-23T07:44:32;3.13;;;1.13;;
47589;SDS011;33316;52.298;9.056;2022-07-23T07:46:57;2.78;;;1.10;;
47589;SDS011;33316;52.298;9.056;2022-07-23T07:49:23;1.75;;;0.90;;
47589;SDS011;33316;52.298;9.056;2022-07-23T07:51:49;1.80;;;0.98;;
47589;SDS011;33316;52.298;9.056;2022-07-23T07:54:14;2.03;;;1.08;;
47589;SDS011;33316;52.298;9.056;2022-07-23T07:56:40;2.75;;;1.40;;
47589;SDS011;33316;52.298;9.056;2022-07-23T07:59:06;4.10;;;1.63;;
47589;SDS011;33316;52.298;9.056;2022-07-23T08:01:31;2.55;;;1.25;;
47589;SDS011;33316;52.298;9.056;2022-07-23T08:03:57;2.28;;;1.20;;
47589;SDS011;33316;52.298;9.056;2022-07-23T08:06:22;3.08;;;0.80;;
47589;SDS011;33316;52.298;9.056;2022-07-23T08:08:48;2.10;;;0.93;;
47589;SDS011;33316;52.298;9.056;2022-07-23T08:11:14;2.10;;;0.98;;
47589;SDS011;33316;52.298;9.056;2022-07-23T08:13:40;2.30;;;1.00;;
47589;SDS011;33316;52.298;9.056;2022-07-23T08:16:06;2.75;;;0.90;;
47589;SDS011;33316;52.298;9.056;2022-07-23T08:18:31;2.33;;;1.02;;
47589;SDS011;33316;52.298;9.056;2022-07-23T08:20:57;1.20;;;0.63;;
47589;SDS011;33316;52.298;9.056;2022-07-23T08:23:23;3.00;;;1.20;;
47589;SDS011;33316;52.298;9.056;2022-07-23T08:25:48;2.35;;;1.00;;
47589;SDS011;33316;52.298;9.056;2022-07-23T08:28:14;1.50;;;0.80;;
47589;SDS011;33316;52.298;9.056;2022-07-23T08:30:41;2.17;;;0.68;;
47589;SDS011;33316;52.298;9.056;2022-07-23T08:33:12;1.70;;;0.93;;
47589;SDS011;33316;52.298;9.056;2022-07-23T08:38:07;2.42;;;0.90;;
47589;SDS011;33316;52.298;9.056;2022-07-23T08:40:39;3.20;;;1.10;;
47589;SDS011;33316;52.298;9.056;2022-07-23T08:43:06;2.55;;;1.17;;
47589;SDS011;33316;52.298;9.056;2022-07-23T08:45:40;1.75;;;0.80;;
47589;SDS011;33316;52.298;9.056;2022-07-23T08:48:11;1.90;;;0.50;;
47589;SDS011;33316;52.298;9.056;2022-07-23T08:50:38;2.47;;;0.75;;
47589;SDS011;33316;52.298;9.056;2022-07-23T08:53:08;2.42;;;0.95;;
47589;SDS011;33316;52.298;9.056;2022-07-23T08:55:34;2.05;;;0.90;;
47589;SDS011;33316;52.298;9.056;2022-07-23T08:58:00;1.58;;;0.70;;
47589;SDS011;33316;52.298;9.056;2022-07-23T09:00:26;4.03;;;0.75;;
47589;SDS011;33316;52.298;9.056;2022-07-23T09:02:51;1.98;;;0.63;;
47589;SDS011;33316;52.298;9.056;2022-07-23T09:05:18;1.83;;;1.10;;
47589;SDS011;33316;52.298;9.056;2022-07-23T09:10:44;3.22;;;1.00;;
47589;SDS011;33316;52.298;9.056;2022-07-23T09:13:31;1.75;;;1.10;;
47589;SDS011;33316;52.298;9.056;2022-07-23T09:18:42;2.03;;;0.65;;
47589;SDS011;33316;52.298;9.056;2022-07-23T09:24:00;2.00;;;0.70;;
47589;SDS011;33316;52.298;9.056;2022-07-23T09:26:28;1.05;;;0.60;;
47589;SDS011;33316;52.298;9.056;2022-07-23T09:31:52;1.10;;;0.60;;
47589;SDS011;33316;52.298;9.056;2022-07-23T09:34:26;0.75;;;0.50;;
47589;SDS011;33316;52.298;9.056;2022-07-23T09:36:58;2.67;;;0.52;;
47589;SDS011;33316;52.298;9.056;2022-07-23T09:39:43;1.88;;;0.50;;
47589;SDS011;33316;52.298;9.056;2022-07-23T09:44:46;1.23;;;0.68;;
47589;SDS011;33316;52.298;9.056;2022-07-23T09:47:13;1.55;;;0.60;;
47589;SDS011;33316;52.298;9.056;2022-07-23T09:49:39;1.20;;;0.57;;
47589;SDS011;33316;52.298;9.056;2022-07-23T09:52:04;1.05;;;0.65;;
47589;SDS011;33316;52.298;9.056;2022-07-23T09:54:31;2.00;;;0.60;;
47589;SDS011;33316;52.298;9.056;2022-07-23T09:57:20;1.45;;;0.50;;
47589;SDS011;33316;52.298;9.056;2022-07-23T09:59:46;1.10;;;0.40;;
47589;SDS011;33316;52.298;9.056;2022-07-23T10:02:12;1.42;;;0.50;;
47589;SDS011;33316;52.298;9.056;2022-07-23T10:04:39;3.30;;;0.52;;
47589;SDS011;33316;52.298;9.056;2022-07-23T10:07:07;1.45;;;0.50;;
47589;SDS011;33316;52.298;9.056;2022-07-23T10:09:36;1.17;;;0.57;;
47589;SDS011;33316;52.298;9.056;2022-07-23T10:12:03;2.15;;;0.70;;
47589;SDS011;33316;52.298;9.056;2022-07-23T10:14:39;0.68;;;0.40;;
47589;SDS011;33316;52.298;9.056;2022-07-23T10:17:05;0.95;;;0.50;;
47589;SDS011;33316;52.298;9.056;2022-07-23T10:19:31;4.88;;;0.40;;
47589;SDS011;33316;52.298;9.056;2022-07-23T10:21:58;2.80;;;0.60;;
47589;SDS011;33316;52.298;9.056;2022-07-23T10:33:20;0.88;;;0.22;;
47589;SDS011;33316;52.298;9.056;2022-07-23T10:41:05;0.50;;;0.30;;
47589;SDS011;33316;52.298;9.056;2022-07-23T10:43:31;1.10;;;0.50;;
47589;SDS011;33316;52.298;9.056;2022-07-23T10:46:20;0.43;;;0.28;;
47589;SDS011;33316;52.298;9.056;2022-07-23T10:48:45;1.80;;;0.47;;
47589;SDS011;33316;52.298;9.056;2022-07-23T10:51:31;1.52;;;0.35;;
47589;SDS011;33316;52.298;9.056;2022-07-23T10:53:57;0.70;;;0.30;;
47589;SDS011;33316;52.298;9.056;2022-07-23T10:59:16;0.57;;;0.38;;
47589;SDS011;33316;52.298;9.056;2022-07-23T11:01:41;1.40;;;0.43;;
47589;SDS011;33316;52.298;9.056;2022-07-23T11:04:07;0.98;;;0.30;;
47589;SDS011;33316;52.298;9.056;2022-07-23T11:07:15;1.08;;;0.40;;
47589;SDS011;33316;52.298;9.056;2022-07-23T11:17:28;1.17;;;0.30;;
47589;SDS011;33316;52.298;9.056;2022-07-23T11:25:08;2.05;;;0.32;;
47589;SDS011;33316;52.298;9.056;2022-07-23T11:27:42;1.88;;;0.40;;
47589;SDS011;33316;52.298;9.056;2022-07-23T11:30:11;0.43;;;0.22;;
47589;SDS011;33316;52.298;9.056;2022-07-23T11:35:33;0.82;;;0.40;;
47589;SDS011;33316;52.298;9.056;2022-07-23T11:38:04;0.93;;;0.45;;
47589;SDS011;33316;52.298;9.056;2022-07-23T11:40:34;1.58;;;0.40;;
47589;SDS011;33316;52.298;9.056;2022-07-23T11:45:31;2.83;;;0.30;;
47589;SDS011;33316;52.298;9.056;2022-07-23T11:48:01;1.08;;;0.32;;
47589;SDS011;33316;52.298;9.056;2022-07-23T11:50:28;1.20;;;0.35;;
47589;SDS011;33316;52.298;9.056;2022-07-23T11:52:54;0.88;;;0.30;;
47589;SDS011;33316;52.298;9.056;2022-07-23T11:55:20;1.20;;;0.20;;
47589;SDS011;33316;52.298;9.056;2022-07-23T11:57:46;0.90;;;0.40;;
47589;SDS011;33316;52.298;9.056;2022-07-23T12:00:16;1.65;;;0.32;;
47589;SDS011;33316;52.298;9.056;2022-07-23T12:02:44;2.33;;;0.47;;
47589;SDS011;33316;52.298;9.056;2022-07-23T12:05:18;1.10;;;0.25;;
47589;SDS011;33316;52.298;9.056;2022-07-23T12:07:49;1.25;;;0.40;;
47589;SDS011;33316;52.298;9.056;2022-07-23T12:10:17;0.75;;;0.20;;
47589;SDS011;33316;52.298;9.056;2022-07-23T12:15:21;0.85;;;0.40;;
47589;SDS011;33316;52.298;9.056;2022-07-23T12:17:48;0.38;;;0.20;;
47589;SDS011;33316;52.298;9.056;2022-07-23T12:20:17;0.68;;;0.22;;
47589;SDS011;33316;52.298;9.056;2022-07-23T12:22:46;2.03;;;0.30;;
47589;SDS011;33316;52.298;9.056;2022-07-23T12:25:18;0.65;;;0.30;;
47589;SDS011;33316;52.298;9.056;2022-07-23T12:30:21;0.28;;;0.20;;
47589;SDS011;33316;52.298;9.056;2022-07-23T12:32:49;0.88;;;0.20;;
47589;SDS011;33316;52.298;9.056;2022-07-23T12:35:16;0.60;;;0.20;;
47589;SDS011;33316;52.298;9.056;2022-07-23T12:37:43;0.70;;;0.30;;
47589;SDS011;33316;52.298;9.056;2022-07-23T12:42:45;0.77;;;0.20;;
47589;SDS011;33316;52.298;9.056;2022-07-23T12:45:15;0.20;;;0.20;;
47589;SDS011;33316;52.298;9.056;2022-07-23T12:47:54;0.38;;;0.20;;
47589;SDS011;33316;52.298;9.056;2022-07-23T12:50:30;0.65;;;0.25;;
47589;SDS011;33316;52.298;9.056;2022-07-23T12:53:07;0.45;;;0.10;;
47589;SDS011;33316;52.298;9.056;2022-07-23T12:55:38;0.77;;;0.10;;
47589;SDS011;33316;52.298;9.056;2022-07-23T12:58:11;0.70;;;0.20;;
47589;SDS011;33316;52.298;9.056;2022-07-23T13:00:54;0.25;;;0.20;;
47589;SDS011;33316;52.298;9.056;2022-07-23T13:03:29;0.47;;;0.20;;
47589;SDS011;33316;52.298;9.056;2022-07-23T13:05:57;0.38;;;0.20;;
47589;SDS011;33316;52.298;9.056;2022-07-23T13:08:25;0.30;;;0.20;;
47589;SDS011;33316;52.298;9.056;2022-07-23T13:10:52;0.30;;;0.20;;
47589;SDS011;33316;52.298;9.056;2022-07-23T13:13:24;0.60;;;0.20;;
47589;SDS011;33316;52.298;9.056;2022-07-23T13:15:54;1.48;;;0.20;;
47589;SDS011;33316;52.298;9.056;2022-07-23T13:18:20;0.20;;;0.15;;
47589;SDS011;33316;52.298;9.056;2022-07-23T13:20:46;0.50;;;0.20;;
47589;SDS011;33316;52.298;9.056;2022-07-23T13:23:13;0.20;;;0.10;;
47589;SDS011;33316;52.298;9.056;2022-07-23T13:25:40;0.43;;;0.10;;
47589;SDS011;33316;52.298;9.056;2022-07-23T13:28:06;0.63;;;0.25;;
47589;SDS011;33316;52.298;9.056;2022-07-23T13:30:31;0.75;;;0.28;;
47589;SDS011;33316;52.298;9.056;2022-07-23T13:32:58;1.05;;;0.30;;
47589;SDS011;33316;52.298;9.056;2022-07-23T13:35:24;0.35;;;0.30;;
47589;SDS011;33316;52.298;9.056;2022-07-23T13:37:50;0.93;;;0.30;;
47589;SDS011;33316;52.298;9.056;2022-07-23T13:40:15;0.88;;;0.20;;
47589;SDS011;33316;52.298;9.056;2022-07-23T13:42:41;0.43;;;0.17;;
47589;SDS011;33316;52.298;9.056;2022-07-23T13:45:06;0.77;;;0.30;;
47589;SDS011;33316;52.298;9.056;2022-07-23T13:47:32;0.80;;;0.28;;
47589;SDS011;33316;52.298;9.056;2022-07-23T13:49:58;0.20;;;0.20;;
47589;SDS011;33316;52.298;9.056;2022-07-23T13:52:24;0.20;;;0.20;;
47589;SDS011;33316;52.298;9.056;2022-07-23T13:54:50;0.20;;;0.20;;
47589;SDS011;33316;52.298;9.056;2022-07-23T13:57:15;0.60;;;0.30;;
47589;SDS011;33316;52.298;9.056;2022-07-23T13:59:41;0.57;;;0.20;;
47589;SDS011;33316;52.298;9.056;2022-07-23T14:02:07;0.52;;;0.22;;
47589;SDS011;33316;52.298;9.056;2022-07-23T14:04:33;0.20;;;0.20;;
47589;SDS011;33316;52.298;9.056;2022-07-23T14:06:58;0.73;;;0.20;;
47589;SDS011;33316;52.298;9.056;2022-07-23T14:09:24;0.93;;;0.20;;
47589;SDS011;33316;52.298;9.056;2022-07-23T14:11:50;1.30;;;0.20;;
47589;SDS011;33316;52.298;9.056;2022-07-23T14:14:16;0.98;;;0.20;;
47589;SDS011;33316;52.298;9.056;2022-07-23T14:16:43;0.70;;;0.10;;
47589;SDS011;33316;52.298;9.056;2022-07-23T14:19:08;0.40;;;0.20;;
47589;SDS011;33316;52.298;9.056;2022-07-23T14:21:35;0.47;;;0.20;;
47589;SDS011;33316;52.298;9.056;2022-07-23T14:24:01;0.55;;;0.20;;
47589;SDS011;33316;52.298;9.056;2022-07-23T14:26:27;0.93;;;0.20;;
47589;SDS011;33316;52.298;9.056;2022-07-23T14:28:53;0.75;;;0.20;;
47589;SDS011;33316;52.298;9.056;2022-07-23T14:31:18;0.57;;;0.20;;
47589;SDS011;33316;52.298;9.056;2022-07-23T14:33:44;0.65;;;0.20;;
47589;SDS011;33316;52.298;9.056;2022-07-23T14:36:09;0.17;;;0.10;;
47589;SDS011;33316;52.298;9.056;2022-07-23T14:38:35;0.63;;;0.30;;
47589;SDS011;33316;52.298;9.056;2022-07-23T14:41:00;0.25;;;0.10;;
47589;SDS011;33316;52.298;9.056;2022-07-23T14:43:26;1.25;;;0.20;;
47589;SDS011;33316;52.298;9.056;2022-07-23T14:45:52;2.42;;;0.15;;
47589;SDS011;33316;52.298;9.056;2022-07-23T14:48:17;0.40;;;0.17;;
47589;SDS011;33316;52.298;9.056;2022-07-23T14:50:43;0.55;;;0.30;;
47589;SDS011;33316;52.298;9.056;2022-07-23T14:53:08;0.30;;;0.20;;
47589;SDS011;33316;52.298;9.056;2022-07-23T14:55:34;0.52;;;0.22;;
47589;SDS011;33316;52.298;9.056;2022-07-23T14:57:59;1.60;;;0.22;;
47589;SDS011;33316;52.298;9.056;2022-07-23T15:00:26;0.68;;;0.28;;
47589;SDS011;33316;52.298;9.056;2022-07-23T15:02:51;0.73;;;0.20;;
47589;SDS011;33316;52.298;9.056;2022-07-23T15:05:17;1.38;;;0.20;;
47589;SDS011;33316;52.298;9.056;2022-07-23T15:07:43;0.57;;;0.20;;
47589;SDS011;33316;52.298;9.056;2022-07-23T15:10:08;0.77;;;0.20;;
47589;SDS011;33316;52.298;9.056;2022-07-23T15:12:34;0.20;;;0.10;;
47589;SDS011;33316;52.298;9.056;2022-07-23T15:14:59;0.25;;;0.20;;
47589;SDS011;33316;52.298;9.056;2022-07-23T15:17:25;0.10;;;0.10;;
47589;SDS011;33316;52.298;9.056;2022-07-23T15:19:51;0.65;;;0.20;;
47589;SDS011;33316;52.298;9.056;2022-07-23T15:22:16;0.30;;;0.20;;
47589;SDS011;33316;52.298;9.056;2022-07-23T15:24:42;0.43;;;0.10;;
47589;SDS011;33316;52.298;9.056;2022-07-23T15:27:08;0.20;;;0.10;;
47589;SDS011;33316;52.298;9.056;2022-07-23T15:29:34;3.83;;;0.22;;
47589;SDS011;33316;52.298;9.056;2022-07-23T15:31:59;0.77;;;0.13;;
47589;SDS011;33316;52.298;9.056;2022-07-23T15:34:25;1.73;;;0.30;;
47589;SDS011;33316;52.298;9.056;2022-07-23T15:36:51;1.38;;;0.20;;
47589;SDS011;33316;52.298;9.056;2022-07-23T15:39:17;0.40;;;0.28;;
47589;SDS011;33316;52.298;9.056;2022-07-23T15:41:43;0.13;;;0.10;;
47589;SDS011;33316;52.298;9.056;2022-07-23T15:44:08;0.45;;;0.20;;
47589;SDS011;33316;52.298;9.056;2022-07-23T15:46:34;0.40;;;0.10;;